sensor_id;sensor_type;location;lat;lon;timestamp;P1;durP1;ratioP1;P2;durP2;ratioP2
4909;SDS011;2470;49.868;8.660;2024-03-25T00:01:20;7.57;;;1.67;;
4909;SDS011;2470;49.868;8.660;2024-03-25T00:03:45;9.60;;;2.60;;
4909;SDS011;2470;49.868;8.660;2024-03-25T00:06:11;2.90;;;2.03;;
4909;SDS011;2470;49.868;8.660;2024-03-25T00:08:36;5.47;;;2.43;;
4909;SDS011;2470;49.868;8.660;2024-03-25T00:11:02;15.93;;;2.37;;
4909;SDS011;2470;49.868;8.660;2024-03-25T00:13:28;3.33;;;1.73;;
4909;SDS011;2470;49.868;8.660;2024-03-25T00:15:53;2.90;;;1.93;;
4909;SDS011;2470;49.868;8.660;2024-03-25T00:18:19;8.50;;;2.83;;
4909;SDS011;2470;49.868;8.660;2024-03-25T00:20:44;5.73;;;2.40;;
4909;SDS011;2470;49.868;8.660;2024-03-25T00:23:10;4.10;;;1.70;;
4909;SDS011;2470;49.868;8.660;2024-03-25T00:25:36;5.10;;;2.07;;
4909;SDS011;2470;49.868;8.660;2024-03-25T00:28:02;9.37;;;2.87;;
4909;SDS011;2470;49.868;8.660;2024-03-25T00:30:29;1.80;;;1.43;;
4909;SDS011;2470;49.868;8.660;2024-03-25T00:32:54;4.47;;;1.50;;
4909;SDS011;2470;49.868;8.660;2024-03-25T00:35:20;2.40;;;1.60;;
4909;SDS011;2470;49.868;8.660;2024-03-25T00:37:45;2.50;;;1.53;;
4909;SDS011;2470;49.868;8.660;2024-03-25T00:40:11;4.50;;;1.43;;
4909;SDS011;2470;49.868;8.660;2024-03-25T00:42:37;7.00;;;2.20;;
4909;SDS011;2470;49.868;8.660;2024-03-25T00:45:03;2.77;;;1.50;;
4909;SDS011;2470;49.868;8.660;2024-03-25T00:47:30;6.03;;;1.80;;
4909;SDS011;2470;49.868;8.660;2024-03-25T00:49:56;2.07;;;1.40;;
4909;SDS011;2470;49.868;8.660;2024-03-25T00:52:22;1.97;;;1.50;;
4909;SDS011;2470;49.868;8.660;2024-03-25T00:54:47;7.13;;;1.50;;
4909;SDS011;2470;49.868;8.660;2024-03-25T00:57:13;6.13;;;1.60;;
4909;SDS011;2470;49.868;8.660;2024-03-25T00:59:39;7.03;;;1.83;;
4909;SDS011;2470;49.868;8.660;2024-03-25T01:02:05;3.83;;;2.13;;
4909;SDS011;2470;49.868;8.660;2024-03-25T01:04:30;4.27;;;2.60;;
4909;SDS011;2470;49.868;8.660;2024-03-25T01:06:56;2.30;;;1.40;;
4909;SDS011;2470;49.868;8.660;2024-03-25T01:09:21;2.90;;;1.57;;
4909;SDS011;2470;49.868;8.660;2024-03-25T01:11:47;2.87;;;1.67;;
4909;SDS011;2470;49.868;8.660;2024-03-25T01:14:13;3.30;;;1.83;;
4909;SDS011;2470;49.868;8.660;2024-03-25T01:16:38;5.23;;;1.90;;
4909;SDS011;2470;49.868;8.660;2024-03-25T01:19:04;3.00;;;1.50;;
4909;SDS011;2470;49.868;8.660;2024-03-25T01:21:29;4.00;;;1.67;;
4909;SDS011;2470;49.868;8.660;2024-03-25T01:23:55;4.13;;;1.80;;
4909;SDS011;2470;49.868;8.660;2024-03-25T01:26:21;3.67;;;1.77;;
4909;SDS011;2470;49.868;8.660;2024-03-25T01:28:47;5.53;;;1.70;;
4909;SDS011;2470;49.868;8.660;2024-03-25T01:31:12;9.63;;;2.17;;
4909;SDS011;2470;49.868;8.660;2024-03-25T01:33:38;1.90;;;1.47;;
4909;SDS011;2470;49.868;8.660;2024-03-25T01:36:04;3.80;;;2.00;;
4909;SDS011;2470;49.868;8.660;2024-03-25T01:38:30;3.90;;;1.93;;
4909;SDS011;2470;49.868;8.660;2024-03-25T01:41:06;9.07;;;2.30;;
4909;SDS011;2470;49.868;8.660;2024-03-25T01:43:32;2.70;;;1.60;;
4909;SDS011;2470;49.868;8.660;2024-03-25T01:45:58;3.80;;;1.93;;
4909;SDS011;2470;49.868;8.660;2024-03-25T01:48:23;8.83;;;2.47;;
4909;SDS011;2470;49.868;8.660;2024-03-25T01:50:49;6.53;;;1.80;;
4909;SDS011;2470;49.868;8.660;2024-03-25T01:53:15;2.40;;;1.80;;
4909;SDS011;2470;49.868;8.660;2024-03-25T01:55:41;5.33;;;1.67;;
4909;SDS011;2470;49.868;8.660;2024-03-25T01:58:26;4.43;;;1.63;;
4909;SDS011;2470;49.868;8.660;2024-03-25T02:00:52;7.30;;;1.90;;
4909;SDS011;2470;49.868;8.660;2024-03-25T02:03:19;4.80;;;1.80;;
4909;SDS011;2470;49.868;8.660;2024-03-25T02:05:45;4.40;;;1.80;;
4909;SDS011;2470;49.868;8.660;2024-03-25T02:08:10;9.67;;;2.10;;
4909;SDS011;2470;49.868;8.660;2024-03-25T02:10:37;1.93;;;1.73;;
4909;SDS011;2470;49.868;8.660;2024-03-25T02:13:03;7.67;;;2.30;;
4909;SDS011;2470;49.868;8.660;2024-03-25T02:15:29;9.13;;;2.67;;
4909;SDS011;2470;49.868;8.660;2024-03-25T02:17:54;9.17;;;2.23;;
4909;SDS011;2470;49.868;8.660;2024-03-25T02:20:20;4.53;;;1.80;;
4909;SDS011;2470;49.868;8.660;2024-03-25T02:22:45;4.63;;;1.77;;
4909;SDS011;2470;49.868;8.660;2024-03-25T02:25:11;3.17;;;2.10;;
4909;SDS011;2470;49.868;8.660;2024-03-25T02:27:39;3.30;;;1.60;;
4909;SDS011;2470;49.868;8.660;2024-03-25T02:30:05;3.47;;;1.73;;
4909;SDS011;2470;49.868;8.660;2024-03-25T02:32:34;3.77;;;1.73;;
4909;SDS011;2470;49.868;8.660;2024-03-25T02:35:01;4.13;;;1.93;;
4909;SDS011;2470;49.868;8.660;2024-03-25T02:37:29;8.07;;;1.80;;
4909;SDS011;2470;49.868;8.660;2024-03-25T02:39:55;4.57;;;1.80;;
4909;SDS011;2470;49.868;8.660;2024-03-25T02:42:23;10.43;;;2.40;;
4909;SDS011;2470;49.868;8.660;2024-03-25T02:44:53;6.53;;;2.40;;
4909;SDS011;2470;49.868;8.660;2024-03-25T02:47:20;2.13;;;2.00;;
4909;SDS011;2470;49.868;8.660;2024-03-25T02:49:46;5.67;;;1.70;;
4909;SDS011;2470;49.868;8.660;2024-03-25T02:52:11;11.57;;;2.57;;
4909;SDS011;2470;49.868;8.660;2024-03-25T02:54:37;10.73;;;3.00;;
4909;SDS011;2470;49.868;8.660;2024-03-25T02:57:02;11.13;;;2.47;;
4909;SDS011;2470;49.868;8.660;2024-03-25T02:59:28;3.77;;;2.30;;
4909;SDS011;2470;49.868;8.660;2024-03-25T03:01:53;8.50;;;2.33;;
4909;SDS011;2470;49.868;8.660;2024-03-25T03:04:19;4.90;;;1.80;;
4909;SDS011;2470;49.868;8.660;2024-03-25T03:06:44;9.47;;;2.07;;
4909;SDS011;2470;49.868;8.660;2024-03-25T03:09:10;5.13;;;2.23;;
4909;SDS011;2470;49.868;8.660;2024-03-25T03:11:35;5.77;;;2.13;;
4909;SDS011;2470;49.868;8.660;2024-03-25T03:14:01;12.17;;;1.83;;
4909;SDS011;2470;49.868;8.660;2024-03-25T03:16:26;4.13;;;1.77;;
4909;SDS011;2470;49.868;8.660;2024-03-25T03:18:52;3.27;;;2.23;;
4909;SDS011;2470;49.868;8.660;2024-03-25T03:21:17;4.93;;;2.13;;
4909;SDS011;2470;49.868;8.660;2024-03-25T03:23:43;3.23;;;1.80;;
4909;SDS011;2470;49.868;8.660;2024-03-25T03:26:08;6.97;;;3.20;;
4909;SDS011;2470;49.868;8.660;2024-03-25T03:28:34;4.27;;;1.80;;
4909;SDS011;2470;49.868;8.660;2024-03-25T03:30:59;8.53;;;2.53;;
4909;SDS011;2470;49.868;8.660;2024-03-25T03:33:25;3.83;;;1.80;;
4909;SDS011;2470;49.868;8.660;2024-03-25T03:35:51;4.77;;;1.73;;
4909;SDS011;2470;49.868;8.660;2024-03-25T03:38:17;5.30;;;1.73;;
4909;SDS011;2470;49.868;8.660;2024-03-25T03:40:44;3.63;;;1.93;;
4909;SDS011;2470;49.868;8.660;2024-03-25T03:43:20;3.70;;;2.27;;
4909;SDS011;2470;49.868;8.660;2024-03-25T03:45:45;2.93;;;1.73;;
4909;SDS011;2470;49.868;8.660;2024-03-25T03:48:11;2.87;;;2.03;;
4909;SDS011;2470;49.868;8.660;2024-03-25T03:50:36;3.93;;;1.73;;
4909;SDS011;2470;49.868;8.660;2024-03-25T03:53:02;6.80;;;2.20;;
4909;SDS011;2470;49.868;8.660;2024-03-25T03:55:27;5.97;;;2.27;;
4909;SDS011;2470;49.868;8.660;2024-03-25T03:57:53;3.93;;;1.80;;
4909;SDS011;2470;49.868;8.660;2024-03-25T04:00:18;6.17;;;2.47;;
4909;SDS011;2470;49.868;8.660;2024-03-25T04:02:44;6.50;;;3.40;;
4909;SDS011;2470;49.868;8.660;2024-03-25T04:05:09;4.10;;;1.80;;
4909;SDS011;2470;49.868;8.660;2024-03-25T04:07:35;6.03;;;2.30;;
4909;SDS011;2470;49.868;8.660;2024-03-25T04:10:00;7.40;;;1.70;;
4909;SDS011;2470;49.868;8.660;2024-03-25T04:12:26;2.50;;;1.43;;
4909;SDS011;2470;49.868;8.660;2024-03-25T04:14:51;5.60;;;2.57;;
4909;SDS011;2470;49.868;8.660;2024-03-25T04:17:20;11.73;;;1.87;;
4909;SDS011;2470;49.868;8.660;2024-03-25T04:19:46;4.40;;;1.97;;
4909;SDS011;2470;49.868;8.660;2024-03-25T04:22:13;7.80;;;2.80;;
4909;SDS011;2470;49.868;8.660;2024-03-25T04:24:38;6.97;;;2.60;;
4909;SDS011;2470;49.868;8.660;2024-03-25T04:27:04;4.33;;;2.73;;
4909;SDS011;2470;49.868;8.660;2024-03-25T04:29:30;7.60;;;2.13;;
4909;SDS011;2470;49.868;8.660;2024-03-25T04:31:55;5.10;;;2.17;;
4909;SDS011;2470;49.868;8.660;2024-03-25T04:34:21;2.63;;;1.90;;
4909;SDS011;2470;49.868;8.660;2024-03-25T04:36:48;6.40;;;2.27;;
4909;SDS011;2470;49.868;8.660;2024-03-25T04:39:13;4.10;;;2.10;;
4909;SDS011;2470;49.868;8.660;2024-03-25T04:41:39;9.13;;;2.17;;
4909;SDS011;2470;49.868;8.660;2024-03-25T04:44:05;7.07;;;1.97;;
4909;SDS011;2470;49.868;8.660;2024-03-25T04:46:31;10.43;;;2.53;;
4909;SDS011;2470;49.868;8.660;2024-03-25T04:48:56;11.90;;;2.50;;
4909;SDS011;2470;49.868;8.660;2024-03-25T04:51:22;6.17;;;2.33;;
4909;SDS011;2470;49.868;8.660;2024-03-25T04:53:48;7.23;;;1.93;;
4909;SDS011;2470;49.868;8.660;2024-03-25T04:56:13;7.27;;;2.97;;
4909;SDS011;2470;49.868;8.660;2024-03-25T04:58:39;6.67;;;2.63;;
4909;SDS011;2470;49.868;8.660;2024-03-25T05:01:04;2.97;;;1.87;;
4909;SDS011;2470;49.868;8.660;2024-03-25T05:03:30;3.67;;;1.73;;
4909;SDS011;2470;49.868;8.660;2024-03-25T05:05:55;6.77;;;1.97;;
4909;SDS011;2470;49.868;8.660;2024-03-25T05:08:21;4.67;;;1.67;;
4909;SDS011;2470;49.868;8.660;2024-03-25T05:10:47;11.03;;;2.67;;
4909;SDS011;2470;49.868;8.660;2024-03-25T05:13:12;4.40;;;2.00;;
4909;SDS011;2470;49.868;8.660;2024-03-25T05:15:38;5.97;;;2.13;;
4909;SDS011;2470;49.868;8.660;2024-03-25T05:18:03;2.83;;;2.53;;
4909;SDS011;2470;49.868;8.660;2024-03-25T05:20:29;3.03;;;1.83;;
4909;SDS011;2470;49.868;8.660;2024-03-25T05:22:54;7.10;;;2.10;;
4909;SDS011;2470;49.868;8.660;2024-03-25T05:25:20;5.07;;;2.40;;
4909;SDS011;2470;49.868;8.660;2024-03-25T05:27:49;4.80;;;1.93;;
4909;SDS011;2470;49.868;8.660;2024-03-25T05:30:15;6.70;;;2.33;;
4909;SDS011;2470;49.868;8.660;2024-03-25T05:32:40;5.23;;;2.20;;
4909;SDS011;2470;49.868;8.660;2024-03-25T05:35:06;8.83;;;2.50;;
4909;SDS011;2470;49.868;8.660;2024-03-25T05:37:32;6.80;;;2.47;;
4909;SDS011;2470;49.868;8.660;2024-03-25T05:39:59;7.70;;;2.67;;
4909;SDS011;2470;49.868;8.660;2024-03-25T05:42:24;5.17;;;3.03;;
4909;SDS011;2470;49.868;8.660;2024-03-25T05:44:50;5.93;;;2.93;;
4909;SDS011;2470;49.868;8.660;2024-03-25T05:47:15;12.90;;;2.83;;
4909;SDS011;2470;49.868;8.660;2024-03-25T05:49:41;4.57;;;3.23;;
4909;SDS011;2470;49.868;8.660;2024-03-25T05:52:06;9.43;;;3.53;;
4909;SDS011;2470;49.868;8.660;2024-03-25T05:54:32;15.77;;;2.67;;
4909;SDS011;2470;49.868;8.660;2024-03-25T05:56:57;2.60;;;2.40;;
4909;SDS011;2470;49.868;8.660;2024-03-25T05:59:23;2.90;;;2.37;;
4909;SDS011;2470;49.868;8.660;2024-03-25T06:01:48;6.53;;;3.60;;
4909;SDS011;2470;49.868;8.660;2024-03-25T06:04:14;8.73;;;3.30;;
4909;SDS011;2470;49.868;8.660;2024-03-25T06:06:39;7.37;;;3.50;;
4909;SDS011;2470;49.868;8.660;2024-03-25T06:09:05;8.83;;;3.77;;
4909;SDS011;2470;49.868;8.660;2024-03-25T06:11:30;9.13;;;3.60;;
4909;SDS011;2470;49.868;8.660;2024-03-25T06:13:56;7.20;;;3.27;;
4909;SDS011;2470;49.868;8.660;2024-03-25T06:16:21;8.50;;;3.43;;
4909;SDS011;2470;49.868;8.660;2024-03-25T06:18:47;6.30;;;2.83;;
4909;SDS011;2470;49.868;8.660;2024-03-25T06:21:12;7.70;;;3.00;;
4909;SDS011;2470;49.868;8.660;2024-03-25T06:23:38;8.20;;;2.73;;
4909;SDS011;2470;49.868;8.660;2024-03-25T06:26:03;8.77;;;3.10;;
4909;SDS011;2470;49.868;8.660;2024-03-25T06:28:29;3.70;;;2.33;;
4909;SDS011;2470;49.868;8.660;2024-03-25T06:30:54;10.87;;;3.77;;
4909;SDS011;2470;49.868;8.660;2024-03-25T06:33:38;6.10;;;2.50;;
4909;SDS011;2470;49.868;8.660;2024-03-25T06:36:24;8.40;;;2.97;;
4909;SDS011;2470;49.868;8.660;2024-03-25T06:38:50;5.80;;;2.43;;
4909;SDS011;2470;49.868;8.660;2024-03-25T06:41:15;4.50;;;2.73;;
4909;SDS011;2470;49.868;8.660;2024-03-25T06:43:41;6.03;;;3.17;;
4909;SDS011;2470;49.868;8.660;2024-03-25T06:46:06;5.47;;;3.57;;
4909;SDS011;2470;49.868;8.660;2024-03-25T06:48:35;6.20;;;3.20;;
4909;SDS011;2470;49.868;8.660;2024-03-25T06:51:01;7.47;;;3.60;;
4909;SDS011;2470;49.868;8.660;2024-03-25T06:53:30;6.40;;;3.23;;
4909;SDS011;2470;49.868;8.660;2024-03-25T06:55:56;9.50;;;3.63;;
4909;SDS011;2470;49.868;8.660;2024-03-25T06:58:23;9.90;;;3.90;;
4909;SDS011;2470;49.868;8.660;2024-03-25T07:00:50;9.63;;;4.07;;
4909;SDS011;2470;49.868;8.660;2024-03-25T07:03:16;9.30;;;3.57;;
4909;SDS011;2470;49.868;8.660;2024-03-25T07:05:45;7.60;;;4.30;;
4909;SDS011;2470;49.868;8.660;2024-03-25T07:08:11;7.50;;;3.80;;
4909;SDS011;2470;49.868;8.660;2024-03-25T07:10:37;5.57;;;3.43;;
4909;SDS011;2470;49.868;8.660;2024-03-25T07:13:03;3.53;;;3.10;;
4909;SDS011;2470;49.868;8.660;2024-03-25T07:15:30;8.10;;;4.13;;
4909;SDS011;2470;49.868;8.660;2024-03-25T07:17:56;7.33;;;3.47;;
4909;SDS011;2470;49.868;8.660;2024-03-25T07:20:21;5.87;;;3.40;;
4909;SDS011;2470;49.868;8.660;2024-03-25T07:22:47;8.50;;;3.33;;
4909;SDS011;2470;49.868;8.660;2024-03-25T07:25:13;9.20;;;3.57;;
4909;SDS011;2470;49.868;8.660;2024-03-25T07:27:39;6.53;;;4.30;;
4909;SDS011;2470;49.868;8.660;2024-03-25T07:30:06;7.53;;;4.07;;
4909;SDS011;2470;49.868;8.660;2024-03-25T07:32:32;5.63;;;3.50;;
4909;SDS011;2470;49.868;8.660;2024-03-25T07:34:59;8.30;;;3.53;;
4909;SDS011;2470;49.868;8.660;2024-03-25T07:37:24;6.20;;;3.40;;
4909;SDS011;2470;49.868;8.660;2024-03-25T07:39:50;10.10;;;3.70;;
4909;SDS011;2470;49.868;8.660;2024-03-25T07:42:16;7.40;;;3.50;;
4909;SDS011;2470;49.868;8.660;2024-03-25T07:44:41;7.87;;;3.80;;
4909;SDS011;2470;49.868;8.660;2024-03-25T07:47:07;9.37;;;3.20;;
4909;SDS011;2470;49.868;8.660;2024-03-25T07:49:33;7.50;;;3.90;;
4909;SDS011;2470;49.868;8.660;2024-03-25T07:52:01;6.90;;;3.87;;
4909;SDS011;2470;49.868;8.660;2024-03-25T07:54:28;13.77;;;3.67;;
4909;SDS011;2470;49.868;8.660;2024-03-25T07:56:54;5.87;;;3.73;;
4909;SDS011;2470;49.868;8.660;2024-03-25T07:59:19;7.90;;;3.20;;
4909;SDS011;2470;49.868;8.660;2024-03-25T08:01:45;7.47;;;2.87;;
4909;SDS011;2470;49.868;8.660;2024-03-25T08:04:11;6.90;;;2.80;;
4909;SDS011;2470;49.868;8.660;2024-03-25T08:06:36;8.90;;;2.50;;
4909;SDS011;2470;49.868;8.660;2024-03-25T08:09:02;9.10;;;3.00;;
4909;SDS011;2470;49.868;8.660;2024-03-25T08:11:31;5.93;;;2.10;;
4909;SDS011;2470;49.868;8.660;2024-03-25T08:13:57;8.43;;;3.07;;
4909;SDS011;2470;49.868;8.660;2024-03-25T08:16:22;11.23;;;3.10;;
4909;SDS011;2470;49.868;8.660;2024-03-25T08:18:48;10.50;;;3.07;;
4909;SDS011;2470;49.868;8.660;2024-03-25T08:21:13;4.80;;;2.67;;
4909;SDS011;2470;49.868;8.660;2024-03-25T08:23:39;9.10;;;2.67;;
4909;SDS011;2470;49.868;8.660;2024-03-25T08:26:05;6.40;;;2.07;;
4909;SDS011;2470;49.868;8.660;2024-03-25T08:28:31;4.67;;;2.63;;
4909;SDS011;2470;49.868;8.660;2024-03-25T08:30:57;4.40;;;2.10;;
4909;SDS011;2470;49.868;8.660;2024-03-25T08:33:23;5.80;;;2.60;;
4909;SDS011;2470;49.868;8.660;2024-03-25T08:35:48;4.10;;;2.17;;
4909;SDS011;2470;49.868;8.660;2024-03-25T08:38:14;3.10;;;1.50;;
4909;SDS011;2470;49.868;8.660;2024-03-25T08:40:39;27.23;;;2.37;;
4909;SDS011;2470;49.868;8.660;2024-03-25T08:43:05;6.23;;;2.00;;
4909;SDS011;2470;49.868;8.660;2024-03-25T08:45:31;13.73;;;2.33;;
4909;SDS011;2470;49.868;8.660;2024-03-25T08:47:57;9.97;;;2.90;;
4909;SDS011;2470;49.868;8.660;2024-03-25T08:50:23;7.30;;;2.80;;
4909;SDS011;2470;49.868;8.660;2024-03-25T08:52:48;6.80;;;2.20;;
4909;SDS011;2470;49.868;8.660;2024-03-25T08:55:14;6.97;;;2.73;;
4909;SDS011;2470;49.868;8.660;2024-03-25T08:57:40;7.33;;;2.40;;
4909;SDS011;2470;49.868;8.660;2024-03-25T09:00:05;6.80;;;2.30;;
4909;SDS011;2470;49.868;8.660;2024-03-25T09:02:35;4.87;;;2.20;;
4909;SDS011;2470;49.868;8.660;2024-03-25T09:05:01;6.33;;;2.43;;
4909;SDS011;2470;49.868;8.660;2024-03-25T09:07:30;7.50;;;2.30;;
4909;SDS011;2470;49.868;8.660;2024-03-25T09:09:58;7.83;;;2.77;;
4909;SDS011;2470;49.868;8.660;2024-03-25T09:12:42;7.63;;;2.17;;
4909;SDS011;2470;49.868;8.660;2024-03-25T09:15:08;4.50;;;2.00;;
4909;SDS011;2470;49.868;8.660;2024-03-25T09:17:35;5.27;;;1.80;;
4909;SDS011;2470;49.868;8.660;2024-03-25T09:20:01;2.47;;;1.90;;
4909;SDS011;2470;49.868;8.660;2024-03-25T09:22:28;7.23;;;2.50;;
4909;SDS011;2470;49.868;8.660;2024-03-25T09:24:54;8.63;;;1.93;;
4909;SDS011;2470;49.868;8.660;2024-03-25T09:27:20;13.63;;;2.40;;
4909;SDS011;2470;49.868;8.660;2024-03-25T09:29:45;6.50;;;1.83;;
4909;SDS011;2470;49.868;8.660;2024-03-25T09:32:11;9.13;;;2.70;;
4909;SDS011;2470;49.868;8.660;2024-03-25T09:34:37;2.90;;;1.80;;
4909;SDS011;2470;49.868;8.660;2024-03-25T09:37:03;13.30;;;2.47;;
4909;SDS011;2470;49.868;8.660;2024-03-25T09:39:28;5.93;;;2.20;;
4909;SDS011;2470;49.868;8.660;2024-03-25T09:41:54;4.80;;;1.90;;
4909;SDS011;2470;49.868;8.660;2024-03-25T09:44:24;10.13;;;1.87;;
4909;SDS011;2470;49.868;8.660;2024-03-25T09:46:51;7.53;;;1.97;;
4909;SDS011;2470;49.868;8.660;2024-03-25T09:49:17;16.37;;;2.23;;
4909;SDS011;2470;49.868;8.660;2024-03-25T09:51:43;6.70;;;2.13;;
4909;SDS011;2470;49.868;8.660;2024-03-25T09:54:09;2.40;;;1.70;;
4909;SDS011;2470;49.868;8.660;2024-03-25T09:56:35;9.63;;;2.20;;
4909;SDS011;2470;49.868;8.660;2024-03-25T09:59:02;6.40;;;1.93;;
4909;SDS011;2470;49.868;8.660;2024-03-25T10:01:28;10.03;;;2.50;;
4909;SDS011;2470;49.868;8.660;2024-03-25T10:03:54;5.60;;;1.77;;
4909;SDS011;2470;49.868;8.660;2024-03-25T10:06:20;5.63;;;2.50;;
4909;SDS011;2470;49.868;8.660;2024-03-25T10:09:27;8.60;;;2.23;;
4909;SDS011;2470;49.868;8.660;2024-03-25T10:11:34;3.37;;;1.40;;
4909;SDS011;2470;49.868;8.660;2024-03-25T10:14:00;4.23;;;1.93;;
4909;SDS011;2470;49.868;8.660;2024-03-25T10:16:27;2.20;;;1.47;;
4909;SDS011;2470;49.868;8.660;2024-03-25T10:18:54;2.00;;;1.40;;
4909;SDS011;2470;49.868;8.660;2024-03-25T10:21:20;4.93;;;1.50;;
4909;SDS011;2470;49.868;8.660;2024-03-25T10:23:46;3.33;;;1.70;;
4909;SDS011;2470;49.868;8.660;2024-03-25T10:26:26;7.23;;;1.67;;
4909;SDS011;2470;49.868;8.660;2024-03-25T10:28:59;6.13;;;1.70;;
4909;SDS011;2470;49.868;8.660;2024-03-25T10:31:26;4.90;;;1.93;;
4909;SDS011;2470;49.868;8.660;2024-03-25T10:33:51;3.57;;;1.40;;
4909;SDS011;2470;49.868;8.660;2024-03-25T10:36:17;2.00;;;1.67;;
4909;SDS011;2470;49.868;8.660;2024-03-25T10:38:44;2.73;;;1.40;;
4909;SDS011;2470;49.868;8.660;2024-03-25T10:41:13;3.03;;;1.70;;
4909;SDS011;2470;49.868;8.660;2024-03-25T10:43:42;6.10;;;1.40;;
4909;SDS011;2470;49.868;8.660;2024-03-25T10:46:10;8.63;;;1.60;;
4909;SDS011;2470;49.868;8.660;2024-03-25T10:48:40;3.53;;;1.40;;
4909;SDS011;2470;49.868;8.660;2024-03-25T10:51:08;3.77;;;1.63;;
4909;SDS011;2470;49.868;8.660;2024-03-25T10:53:35;3.17;;;1.57;;
4909;SDS011;2470;49.868;8.660;2024-03-25T10:56:02;3.60;;;1.97;;
4909;SDS011;2470;49.868;8.660;2024-03-25T10:58:30;10.00;;;1.90;;
4909;SDS011;2470;49.868;8.660;2024-03-25T11:00:57;3.73;;;1.70;;
4909;SDS011;2470;49.868;8.660;2024-03-25T11:03:25;3.30;;;1.60;;
4909;SDS011;2470;49.868;8.660;2024-03-25T11:05:51;4.97;;;1.60;;
4909;SDS011;2470;49.868;8.660;2024-03-25T11:08:17;11.00;;;2.53;;
4909;SDS011;2470;49.868;8.660;2024-03-25T11:10:43;4.90;;;1.60;;
4909;SDS011;2470;49.868;8.660;2024-03-25T11:13:18;4.87;;;1.70;;
4909;SDS011;2470;49.868;8.660;2024-03-25T11:15:45;3.50;;;1.80;;
4909;SDS011;2470;49.868;8.660;2024-03-25T11:18:12;3.33;;;1.20;;
4909;SDS011;2470;49.868;8.660;2024-03-25T11:20:39;6.47;;;1.90;;
4909;SDS011;2470;49.868;8.660;2024-03-25T11:23:11;5.43;;;1.70;;
4909;SDS011;2470;49.868;8.660;2024-03-25T11:25:38;3.83;;;2.13;;
4909;SDS011;2470;49.868;8.660;2024-03-25T11:28:04;4.87;;;1.90;;
4909;SDS011;2470;49.868;8.660;2024-03-25T11:30:30;6.57;;;1.63;;
4909;SDS011;2470;49.868;8.660;2024-03-25T11:32:56;2.30;;;1.60;;
4909;SDS011;2470;49.868;8.660;2024-03-25T11:35:23;2.70;;;1.57;;
4909;SDS011;2470;49.868;8.660;2024-03-25T11:37:49;2.63;;;1.40;;
4909;SDS011;2470;49.868;8.660;2024-03-25T11:40:18;10.15;;;2.22;;
4909;SDS011;2470;49.868;8.660;2024-03-25T11:42:44;4.82;;;1.60;;
4909;SDS011;2470;49.868;8.660;2024-03-25T11:45:13;4.78;;;1.52;;
4909;SDS011;2470;49.868;8.660;2024-03-25T11:47:44;2.85;;;1.60;;
4909;SDS011;2470;49.868;8.660;2024-03-25T11:50:11;1.65;;;1.48;;
4909;SDS011;2470;49.868;8.660;2024-03-25T11:52:41;3.35;;;1.42;;
4909;SDS011;2470;49.868;8.660;2024-03-25T11:55:07;9.70;;;1.77;;
4909;SDS011;2470;49.868;8.660;2024-03-25T11:57:33;1.90;;;1.48;;
4909;SDS011;2470;49.868;8.660;2024-03-25T12:00:03;4.10;;;1.55;;
4909;SDS011;2470;49.868;8.660;2024-03-25T12:02:30;3.72;;;1.45;;
4909;SDS011;2470;49.868;8.660;2024-03-25T12:04:56;3.70;;;1.60;;
4909;SDS011;2470;49.868;8.660;2024-03-25T12:07:22;2.30;;;1.40;;
4909;SDS011;2470;49.868;8.660;2024-03-25T12:09:47;2.80;;;1.58;;
4909;SDS011;2470;49.868;8.660;2024-03-25T12:12:32;1.90;;;1.50;;
4909;SDS011;2470;49.868;8.660;2024-03-25T12:14:57;5.85;;;1.67;;
4909;SDS011;2470;49.868;8.660;2024-03-25T12:17:23;3.97;;;1.85;;
4909;SDS011;2470;49.868;8.660;2024-03-25T12:20:02;4.65;;;2.30;;
4909;SDS011;2470;49.868;8.660;2024-03-25T12:22:30;3.45;;;1.83;;
4909;SDS011;2470;49.868;8.660;2024-03-25T12:24:57;3.05;;;1.45;;
4909;SDS011;2470;49.868;8.660;2024-03-25T12:27:24;8.48;;;1.55;;
4909;SDS011;2470;49.868;8.660;2024-03-25T12:32:35;4.25;;;1.77;;
4909;SDS011;2470;49.868;8.660;2024-03-25T12:35:01;1.95;;;1.60;;
4909;SDS011;2470;49.868;8.660;2024-03-25T12:37:27;3.20;;;1.40;;
4909;SDS011;2470;49.868;8.660;2024-03-25T12:39:52;4.88;;;1.70;;
4909;SDS011;2470;49.868;8.660;2024-03-25T12:42:18;3.30;;;1.50;;
4909;SDS011;2470;49.868;8.660;2024-03-25T12:44:44;5.35;;;1.50;;
4909;SDS011;2470;49.868;8.660;2024-03-25T12:47:10;1.60;;;1.27;;
4909;SDS011;2470;49.868;8.660;2024-03-25T12:49:35;3.40;;;1.30;;
4909;SDS011;2470;49.868;8.660;2024-03-25T12:52:03;7.50;;;1.55;;
4909;SDS011;2470;49.868;8.660;2024-03-25T12:54:30;2.78;;;1.73;;
4909;SDS011;2470;49.868;8.660;2024-03-25T12:56:55;3.13;;;1.40;;
4909;SDS011;2470;49.868;8.660;2024-03-25T12:59:21;1.67;;;1.33;;
4909;SDS011;2470;49.868;8.660;2024-03-25T13:01:47;1.83;;;1.30;;
4909;SDS011;2470;49.868;8.660;2024-03-25T13:04:12;1.92;;;1.20;;
4909;SDS011;2470;49.868;8.660;2024-03-25T13:06:38;1.23;;;1.10;;
4909;SDS011;2470;49.868;8.660;2024-03-25T13:09:03;2.03;;;1.33;;
4909;SDS011;2470;49.868;8.660;2024-03-25T13:11:29;2.38;;;1.48;;
4909;SDS011;2470;49.868;8.660;2024-03-25T13:13:54;1.63;;;1.20;;
4909;SDS011;2470;49.868;8.660;2024-03-25T13:16:20;2.33;;;1.05;;
4909;SDS011;2470;49.868;8.660;2024-03-25T13:18:46;2.67;;;1.30;;
4909;SDS011;2470;49.868;8.660;2024-03-25T13:21:11;1.77;;;1.30;;
4909;SDS011;2470;49.868;8.660;2024-03-25T13:23:37;1.50;;;1.13;;
4909;SDS011;2470;49.868;8.660;2024-03-25T13:26:02;4.43;;;1.27;;
4909;SDS011;2470;49.868;8.660;2024-03-25T13:28:28;2.78;;;1.20;;
4909;SDS011;2470;49.868;8.660;2024-03-25T13:30:54;1.70;;;1.20;;
4909;SDS011;2470;49.868;8.660;2024-03-25T13:33:19;4.70;;;1.23;;
4909;SDS011;2470;49.868;8.660;2024-03-25T13:35:45;2.70;;;0.95;;
4909;SDS011;2470;49.868;8.660;2024-03-25T13:38:10;1.23;;;0.88;;
4909;SDS011;2470;49.868;8.660;2024-03-25T13:40:36;1.15;;;0.82;;
4909;SDS011;2470;49.868;8.660;2024-03-25T13:43:01;4.10;;;1.42;;
4909;SDS011;2470;49.868;8.660;2024-03-25T13:45:27;2.70;;;1.00;;
4909;SDS011;2470;49.868;8.660;2024-03-25T13:47:52;1.80;;;1.13;;
4909;SDS011;2470;49.868;8.660;2024-03-25T13:50:18;3.05;;;1.30;;
4909;SDS011;2470;49.868;8.660;2024-03-25T13:52:47;3.78;;;1.10;;
4909;SDS011;2470;49.868;8.660;2024-03-25T13:55:13;4.80;;;1.23;;
4909;SDS011;2470;49.868;8.660;2024-03-25T13:57:38;3.35;;;1.08;;
4909;SDS011;2470;49.868;8.660;2024-03-25T14:00:04;1.33;;;1.23;;
4909;SDS011;2470;49.868;8.660;2024-03-25T14:02:35;1.25;;;0.90;;
4909;SDS011;2470;49.868;8.660;2024-03-25T14:05:02;4.38;;;1.00;;
4909;SDS011;2470;49.868;8.660;2024-03-25T14:07:28;1.35;;;1.13;;
4909;SDS011;2470;49.868;8.660;2024-03-25T14:09:53;1.02;;;1.00;;
4909;SDS011;2470;49.868;8.660;2024-03-25T14:12:19;1.55;;;1.10;;
4909;SDS011;2470;49.868;8.660;2024-03-25T14:14:45;4.88;;;1.05;;
4909;SDS011;2470;49.868;8.660;2024-03-25T14:17:10;2.03;;;1.00;;
4909;SDS011;2470;49.868;8.660;2024-03-25T14:19:36;1.83;;;1.38;;
4909;SDS011;2470;49.868;8.660;2024-03-25T14:22:01;1.20;;;1.10;;
4909;SDS011;2470;49.868;8.660;2024-03-25T14:24:27;2.83;;;1.17;;
4909;SDS011;2470;49.868;8.660;2024-03-25T14:26:52;2.47;;;1.30;;
4909;SDS011;2470;49.868;8.660;2024-03-25T14:29:18;2.03;;;1.15;;
4909;SDS011;2470;49.868;8.660;2024-03-25T14:31:44;1.48;;;1.02;;
4909;SDS011;2470;49.868;8.660;2024-03-25T14:34:09;2.05;;;1.15;;
4909;SDS011;2470;49.868;8.660;2024-03-25T14:36:35;1.70;;;1.20;;
4909;SDS011;2470;49.868;8.660;2024-03-25T14:39:00;1.23;;;1.13;;
4909;SDS011;2470;49.868;8.660;2024-03-25T14:41:26;1.40;;;1.30;;
4909;SDS011;2470;49.868;8.660;2024-03-25T14:43:51;1.10;;;1.00;;
4909;SDS011;2470;49.868;8.660;2024-03-25T14:46:17;7.82;;;1.23;;
4909;SDS011;2470;49.868;8.660;2024-03-25T14:48:43;2.58;;;1.13;;
4909;SDS011;2470;49.868;8.660;2024-03-25T14:51:08;3.78;;;1.40;;
4909;SDS011;2470;49.868;8.660;2024-03-25T14:53:34;1.20;;;1.10;;
4909;SDS011;2470;49.868;8.660;2024-03-25T14:56:00;2.85;;;1.63;;
4909;SDS011;2470;49.868;8.660;2024-03-25T14:58:25;5.88;;;1.58;;
4909;SDS011;2470;49.868;8.660;2024-03-25T15:00:52;4.55;;;1.35;;
4909;SDS011;2470;49.868;8.660;2024-03-25T15:03:17;2.58;;;1.33;;
4909;SDS011;2470;49.868;8.660;2024-03-25T15:05:43;3.83;;;1.55;;
4909;SDS011;2470;49.868;8.660;2024-03-25T15:08:08;2.58;;;1.55;;
4909;SDS011;2470;49.868;8.660;2024-03-25T15:10:34;1.80;;;1.27;;
4909;SDS011;2470;49.868;8.660;2024-03-25T15:13:00;3.72;;;1.63;;